Check out our new BloomSky Weather System.

Active alerts


No alerts


Thunder radar  blitzortung!


Rain radar more information rain snow radar


Visit our other weather sites:

Template documentation
and downloads

And another site



Weather Underground History page Text

Daily Summary for February 22, 2017 Units:  English    Metric   Both
« Previous Day
Next Day »
Daily Weekly Monthly Yearly Custom
  High: Low: Average:
Temperature: 84.6 °F 48.9 °F 65.6 °F
Dew Point: 57.2 °F 46.9 °F 52 °F
Humidity: 96 % 31 % 66 %
Wind Speed: 5.0 mph 0.0 mph 0.5 mph
Wind Gust: 7.0 mph - -
Wind:- - SW
Pressure: 29.92 in 29.77 in -
Precipitation: 0.00 in    
Historical Graphs
 
 
Tabular Data for February 22, 2017
Time Temperature Dew Point Pressure Wind Wind Speed Wind Gust Humidity Rainfall Rate (Hourly)
00:03 53.6 °F 51.1 °F 29.91 in Calm     91 % 0.00 in
00:08 53.4 °F 50.9 °F 29.91 in Calm     91 % 0.00 in
00:13 53.4 °F 50.9 °F 29.91 in Calm     91 % 0.00 in
00:18 53.4 °F 51.1 °F 29.91 in Calm     92 % 0.00 in
00:23 53.4 °F 51.1 °F 29.91 in Calm     92 % 0.00 in
00:28 53.4 °F 51.1 °F 29.91 in Calm     92 % 0.00 in
00:33 53.4 °F 51.1 °F 29.91 in Calm     92 % 0.00 in
00:38 53.2 °F 50.7 °F 29.91 in Calm     91 % 0.00 in
00:43 53.2 °F 50.9 °F 29.91 in Calm     92 % 0.00 in
00:48 53.1 °F 50.7 °F 29.91 in Calm     92 % 0.00 in
00:53 53.2 °F 51.3 °F 29.90 in Calm     93 % 0.00 in
00:58 53.1 °F 50.7 °F 29.90 in Calm     92 % 0.00 in
01:03 53.1 °F 50.7 °F 29.90 in Calm     92 % 0.00 in
01:08 52.9 °F 50.5 °F 29.90 in Calm     92 % 0.00 in
01:13 52.9 °F 50.5 °F 29.90 in Calm     92 % 0.00 in
01:18 52.9 °F 50.5 °F 29.90 in Calm     92 % 0.00 in
01:23 52.5 °F 50.2 °F 29.90 in Calm     92 % 0.00 in
01:28 52.5 °F 50.2 °F 29.89 in Calm     92 % 0.00 in
01:33 52.9 °F 50.5 °F 29.89 in Calm     92 % 0.00 in
01:39 53.2 °F 50.9 °F 29.89 in Calm   1.0 mph 92 % 0.00 in
01:44 53.6 °F 51.1 °F 29.89 in Calm   1.0 mph 91 % 0.00 in
01:49 53.4 °F 50.5 °F 29.89 in Calm   1.0 mph 90 % 0.00 in
01:54 53.2 °F 50.0 °F 29.89 in Calm     89 % 0.00 in
01:59 52.9 °F 49.6 °F 29.89 in Calm     89 % 0.00 in
02:04 52.5 °F 49.6 °F 29.89 in Calm     90 % 0.00 in
02:09 52.3 °F 49.5 °F 29.89 in Calm     90 % 0.00 in
02:14 52.2 °F 49.3 °F 29.89 in Calm     90 % 0.00 in
02:19 52.2 °F 49.6 °F 29.89 in Calm     91 % 0.00 in
02:24 52.3 °F 49.8 °F 29.89 in Calm     91 % 0.00 in
02:25 52.3 °F 49.8 °F 29.89 in Calm     91 % 0.00 in
02:30 52.2 °F 49.6 °F 29.89 in Calm     91 % 0.00 in
02:35 51.8 °F 48.9 °F 29.89 in Calm     90 % 0.00 in
02:40 51.4 °F 48.6 °F 29.89 in Calm     90 % 0.00 in
02:45 51.4 °F 48.9 °F 29.89 in Calm     91 % 0.00 in
02:48 51.6 °F 49.5 °F 29.89 in Calm     92 % 0.00 in
02:53 51.6 °F 49.5 °F 29.89 in Calm     92 % 0.00 in
02:58 52.0 °F 49.6 °F 29.89 in Calm     92 % 0.00 in
03:03 52.5 °F 50.2 °F 29.89 in Calm   1.0 mph 92 % 0.00 in
03:08 53.1 °F 50.5 °F 29.89 in Calm   1.0 mph 91 % 0.00 in
03:13 53.4 °F 50.5 °F 29.89 in Calm   1.0 mph 90 % 0.00 in
03:19 53.6 °F 50.4 °F 29.89 in West 1.0 mph 1.0 mph 89 % 0.00 in
03:24 53.8 °F 50.4 °F 29.89 in Calm   1.0 mph 88 % 0.00 in
03:29 53.4 °F 49.6 °F 29.89 in Calm   1.0 mph 87 % 0.00 in
03:34 53.2 °F 49.8 °F 29.89 in Calm   1.0 mph 88 % 0.00 in
03:39 53.1 °F 49.6 °F 29.89 in Calm     88 % 0.00 in
03:44 52.7 °F 49.3 °F 29.89 in Calm     88 % 0.00 in
03:49 52.3 °F 48.9 °F 29.89 in Calm   1.0 mph 88 % 0.00 in
03:54 52.2 °F 49.1 °F 29.89 in Calm   1.0 mph 89 % 0.00 in
03:59 52.0 °F 48.9 °F 29.89 in Calm   1.0 mph 89 % 0.00 in
04:04 51.8 °F 48.9 °F 29.89 in Calm     90 % 0.00 in
04:09 52.0 °F 49.1 °F 29.89 in Calm     90 % 0.00 in
04:14 51.8 °F 48.9 °F 29.89 in Calm     90 % 0.00 in
04:19 51.6 °F 48.7 °F 29.89 in Calm     90 % 0.00 in
04:24 51.4 °F 48.6 °F 29.89 in Calm     90 % 0.00 in
04:29 51.1 °F 48.2 °F 29.89 in Calm     90 % 0.00 in
04:30 51.1 °F 48.2 °F 29.89 in Calm     90 % 0.00 in
04:35 50.7 °F 47.8 °F 29.89 in Calm     90 % 0.00 in
04:40 50.5 °F 47.7 °F 29.89 in Calm     90 % 0.00 in
04:45 50.2 °F 47.7 °F 29.89 in Calm     91 % 0.00 in
04:50 50.2 °F 48.0 °F 29.89 in Calm     92 % 0.00 in
04:55 50.4 °F 48.4 °F 29.89 in Calm     93 % 0.00 in
05:00 50.5 °F 48.4 °F 29.89 in Calm     92 % 0.00 in
05:05 51.1 °F 49.1 °F 29.89 in Calm     93 % 0.00 in
05:10 51.4 °F 49.5 °F 29.89 in Calm     93 % 0.00 in
05:15 51.4 °F 49.3 °F 29.89 in Calm     92 % 0.00 in
05:20 51.3 °F 48.7 °F 29.89 in Calm     91 % 0.00 in
05:25 51.1 °F 48.9 °F 29.90 in Calm     92 % 0.00 in
05:30 51.1 °F 48.6 °F 29.90 in Calm     91 % 0.00 in
05:35 51.1 °F 48.9 °F 29.90 in Calm   1.0 mph 92 % 0.00 in
05:40 51.1 °F 48.9 °F 29.90 in Calm   1.0 mph 92 % 0.00 in
05:45 50.9 °F 48.7 °F 29.89 in Calm   1.0 mph 92 % 0.00 in
05:50 51.1 °F 48.9 °F 29.89 in Calm   1.0 mph 92 % 0.00 in
05:55 51.1 °F 48.9 °F 29.90 in Calm   1.0 mph 92 % 0.00 in
06:00 51.1 °F 48.9 °F 29.89 in Calm   1.0 mph 92 % 0.00 in
06:05 50.9 °F 48.7 °F 29.89 in Calm   1.0 mph 92 % 0.00 in
06:10 50.7 °F 48.6 °F 29.90 in Calm   1.0 mph 92 % 0.00 in
06:16 50.5 °F 48.4 °F 29.90 in Calm   1.0 mph 92 % 0.00 in
06:21 50.2 °F 48.0 °F 29.90 in Calm   1.0 mph 92 % 0.00 in
06:26 49.6 °F 47.5 °F 29.90 in Calm   1.0 mph 92 % 0.00 in
06:31 49.5 °F 47.3 °F 29.90 in Calm     92 % 0.00 in
06:36 49.3 °F 47.3 °F 29.90 in Calm     93 % 0.00 in
06:41 49.1 °F 47.1 °F 29.90 in Calm     93 % 0.00 in
06:46 48.9 °F 46.9 °F 29.90 in Calm     93 % 0.00 in
06:51 48.9 °F 47.3 °F 29.90 in Calm     94 % 0.00 in
06:56 48.9 °F 47.3 °F 29.90 in Calm     94 % 0.00 in
07:01 48.9 °F 47.3 °F 29.90 in Calm     94 % 0.00 in
07:06 48.9 °F 47.5 °F 29.90 in Calm     95 % 0.00 in
07:11 49.1 °F 47.7 °F 29.91 in Calm     95 % 0.00 in
07:16 49.1 °F 47.7 °F 29.91 in Calm     95 % 0.00 in
07:22 49.5 °F 48.0 °F 29.91 in Calm   1.0 mph 95 % 0.00 in
07:27 49.6 °F 48.2 °F 29.91 in Calm   1.0 mph 95 % 0.00 in
07:32 49.8 °F 48.4 °F 29.91 in Calm   1.0 mph 95 % 0.00 in
07:37 50.4 °F 49.3 °F 29.91 in Calm   1.0 mph 96 % 0.00 in
07:42 50.7 °F 49.6 °F 29.91 in Calm   1.0 mph 96 % 0.00 in
07:47 51.4 °F 50.4 °F 29.91 in Calm   1.0 mph 96 % 0.00 in
07:52 52.2 °F 51.1 °F 29.91 in Calm   1.0 mph 96 % 0.00 in
07:57 53.2 °F 52.2 °F 29.91 in WSW 1.0 mph 1.0 mph 96 % 0.00 in
08:02 54.3 °F 52.9 °F 29.91 in Calm   1.0 mph 95 % 0.00 in
08:07 55.2 °F 53.2 °F 29.92 in Calm   2.0 mph 93 % 0.00 in
08:12 56.7 °F 54.1 °F 29.92 in Calm   2.0 mph 91 % 0.00 in
08:17 57.6 °F 54.3 °F 29.92 in Calm   2.0 mph 89 % 0.00 in
08:22 58.6 °F 54.9 °F 29.92 in Calm   2.0 mph 87 % 0.00 in
08:27 59.9 °F 55.8 °F 29.92 in Calm   2.0 mph 86 % 0.00 in
08:32 61.2 °F 55.9 °F 29.92 in Calm   2.0 mph 83 % 0.00 in
08:37 61.7 °F 55.0 °F 29.92 in WSW 1.0 mph 2.0 mph 79 % 0.00 in
08:42 62.2 °F 54.9 °F 29.92 in Calm   2.0 mph 77 % 0.00 in
08:47 62.6 °F 54.5 °F 29.92 in Calm   2.0 mph 75 % 0.00 in
08:52 62.8 °F 54.0 °F 29.92 in NNW 1.0 mph 4.0 mph 73 % 0.00 in
08:57 63.0 °F 54.1 °F 29.92 in Calm   4.0 mph 73 % 0.00 in
09:02 63.1 °F 54.0 °F 29.92 in NW 1.0 mph 4.0 mph 72 % 0.00 in
09:07 63.9 °F 54.7 °F 29.92 in WSW 1.0 mph 4.0 mph 72 % 0.00 in
09:12 64.6 °F 55.0 °F 29.92 in NW 2.0 mph 3.0 mph 71 % 0.00 in
09:17 65.1 °F 55.0 °F 29.92 in WNW 2.0 mph 3.0 mph 70 % 0.00 in
09:22 65.3 °F 55.2 °F 29.92 in WNW 1.0 mph 3.0 mph 70 % 0.00 in
09:27 66.2 °F 55.8 °F 29.91 in Calm   3.0 mph 69 % 0.00 in
09:32 66.7 °F 55.8 °F 29.91 in North 2.0 mph 4.0 mph 68 % 0.00 in
09:37 67.3 °F 55.9 °F 29.91 in North 2.0 mph 5.0 mph 67 % 0.00 in
09:42 67.6 °F 55.4 °F 29.91 in NW 2.0 mph 5.0 mph 65 % 0.00 in
09:47 68.2 °F 55.0 °F 29.91 in WNW 1.0 mph 5.0 mph 63 % 0.00 in
09:52 68.5 °F 55.0 °F 29.91 in Calm   4.0 mph 62 % 0.00 in
09:57 69.4 °F 56.3 °F 29.91 in Calm   4.0 mph 63 % 0.00 in
10:02 70.2 °F 56.1 °F 29.91 in North 1.0 mph 4.0 mph 61 % 0.00 in
10:07 70.5 °F 55.9 °F 29.91 in WNW 1.0 mph 4.0 mph 60 % 0.00 in
10:12 71.1 °F 55.6 °F 29.91 in Calm   4.0 mph 58 % 0.00 in
10:17 72.1 °F 56.5 °F 29.91 in NNW 3.0 mph 4.0 mph 58 % 0.00 in
10:22 73.0 °F 56.8 °F 29.91 in Calm   3.0 mph 57 % 0.00 in
10:27 73.6 °F 56.5 °F 29.91 in NE 2.0 mph 3.0 mph 55 % 0.00 in
10:32 73.2 °F 55.6 °F 29.91 in Calm   4.0 mph 54 % 0.00 in
10:37 73.6 °F 56.5 °F 29.90 in NW 1.0 mph 4.0 mph 55 % 0.00 in
10:42 73.6 °F 55.9 °F 29.90 in NW 1.0 mph 4.0 mph 54 % 0.00 in
10:47 73.9 °F 55.8 °F 29.90 in ESE 1.0 mph 4.0 mph 53 % 0.00 in
10:52 73.9 °F 55.8 °F 29.90 in Calm   4.0 mph 53 % 0.00 in
10:57 74.5 °F 55.2 °F 29.90 in NW 5.0 mph 5.0 mph 51 % 0.00 in
11:02 74.5 °F 56.3 °F 29.90 in West 1.0 mph 6.0 mph 53 % 0.00 in
11:07 75.0 °F 56.7 °F 29.90 in Calm   6.0 mph 53 % 0.00 in
11:12 75.7 °F 55.2 °F 29.90 in NW 3.0 mph 6.0 mph 49 % 0.00 in
11:18 75.7 °F 55.8 °F 29.89 in NNW 2.0 mph 4.0 mph 50 % 0.00 in
11:23 76.3 °F 55.8 °F 29.89 in WNW 2.0 mph 4.0 mph 49 % 0.00 in
11:28 76.5 °F 54.7 °F 29.89 in NNW 2.0 mph 4.0 mph 47 % 0.00 in
11:33 76.1 °F 56.7 °F 29.89 in NE 2.0 mph 4.0 mph 51 % 0.00 in
11:38 76.6 °F 55.4 °F 29.88 in SW 2.0 mph 4.0 mph 48 % 0.00 in
11:43 77.7 °F 55.2 °F 29.88 in SW 1.0 mph 5.0 mph 46 % 0.00 in
11:48 78.1 °F 53.8 °F 29.88 in NW 2.0 mph 5.0 mph 43 % 0.00 in
11:53 77.5 °F 54.0 °F 29.88 in SSE 2.0 mph 5.0 mph 44 % 0.00 in
11:58 77.9 °F 53.6 °F 29.88 in NW 2.0 mph 5.0 mph 43 % 0.00 in
12:03 78.3 °F 55.2 °F 29.87 in West 1.0 mph 5.0 mph 45 % 0.00 in
12:08 78.6 °F 52.9 °F 29.87 in NW 2.0 mph 5.0 mph 41 % 0.00 in
12:13 78.6 °F 54.3 °F 29.87 in NW 2.0 mph 4.0 mph 43 % 0.00 in
12:18 78.6 °F 57.2 °F 29.86 in SSW 1.0 mph 4.0 mph 48 % 0.00 in
12:23 79.3 °F 54.9 °F 29.86 in NNE 1.0 mph 4.0 mph 43 % 0.00 in
12:28 78.6 °F 54.9 °F 29.86 in North 1.0 mph 7.0 mph 44 % 0.00 in
12:33 78.8 °F 54.5 °F 29.86 in WNW 1.0 mph 7.0 mph 43 % 0.00 in
12:38 79.0 °F 53.2 °F 29.86 in West 2.0 mph 7.0 mph 41 % 0.00 in
12:43 78.4 °F 53.4 °F 29.86 in NW 1.0 mph 6.0 mph 42 % 0.00 in
12:48 79.2 °F 55.4 °F 29.85 in Calm   6.0 mph 44 % 0.00 in
12:53 80.2 °F 57.0 °F 29.85 in SW 1.0 mph 6.0 mph 45 % 0.00 in
12:58 80.4 °F 54.5 °F 29.85 in WSW 3.0 mph 5.0 mph 41 % 0.00 in
13:03 80.1 °F 54.3 °F 29.84 in SE 1.0 mph 7.0 mph 41 % 0.00 in
13:08 80.2 °F 52.3 °F 29.84 in Calm   7.0 mph 38 % 0.00 in
13:14 80.6 °F 54.7 °F 29.84 in SSW 2.0 mph 7.0 mph 41 % 0.00 in
13:19 81.0 °F 55.0 °F 29.83 in Calm   3.0 mph 41 % 0.00 in
13:24 81.0 °F 55.0 °F 29.83 in SE 2.0 mph 6.0 mph 41 % 0.00 in
13:29 81.0 °F 55.0 °F 29.83 in WSW 4.0 mph 6.0 mph 41 % 0.00 in
13:34 81.1 °F 55.2 °F 29.83 in South 2.0 mph 6.0 mph 41 % 0.00 in
13:39 80.8 °F 55.6 °F 29.83 in Calm   6.0 mph 42 % 0.00 in
13:44 80.8 °F 54.1 °F 29.83 in Calm   6.0 mph 40 % 0.00 in
13:49 81.3 °F 53.2 °F 29.82 in NNW 2.0 mph 6.0 mph 38 % 0.00 in
13:54 81.5 °F 55.6 °F 29.82 in NW 2.0 mph 5.0 mph 41 % 0.00 in
13:59 81.1 °F 50.9 °F 29.82 in ENE 1.0 mph 5.0 mph 35 % 0.00 in
14:04 81.5 °F 54.9 °F 29.81 in NNW 1.0 mph 5.0 mph 40 % 0.00 in
14:09 81.9 °F 51.4 °F 29.81 in SW 2.0 mph 4.0 mph 35 % 0.00 in
14:14 82.0 °F 54.0 °F 29.81 in Calm   4.0 mph 38 % 0.00 in
14:19 82.2 °F 51.1 °F 29.81 in NW 2.0 mph 4.0 mph 34 % 0.00 in
14:24 81.9 °F 50.7 °F 29.81 in Calm   6.0 mph 34 % 0.00 in
14:29 82.2 °F 54.1 °F 29.81 in Calm   6.0 mph 38 % 0.00 in
14:34 82.8 °F 52.3 °F 29.81 in Calm   6.0 mph 35 % 0.00 in
14:39 82.8 °F 49.8 °F 29.80 in NW 3.0 mph 4.0 mph 32 % 0.00 in
14:44 82.0 °F 49.3 °F 29.80 in WNW 2.0 mph 4.0 mph 32 % 0.00 in
14:49 82.0 °F 50.9 °F 29.80 in NNW 1.0 mph 6.0 mph 34 % 0.00 in
14:54 82.2 °F 51.1 °F 29.80 in Calm   6.0 mph 34 % 0.00 in
14:59 82.8 °F 51.4 °F 29.80 in WSW 2.0 mph 6.0 mph 34 % 0.00 in
15:04 82.8 °F 52.3 °F 29.79 in SW 2.0 mph 5.0 mph 35 % 0.00 in
15:09 82.8 °F 49.8 °F 29.79 in NW 4.0 mph 5.0 mph 32 % 0.00 in
15:14 82.8 °F 53.1 °F 29.78 in SSE 1.0 mph 6.0 mph 36 % 0.00 in
15:19 83.1 °F 51.1 °F 29.78 in Calm   6.0 mph 33 % 0.00 in
15:24 83.3 °F 53.6 °F 29.78 in Calm   6.0 mph 36 % 0.00 in
15:29 83.7 °F 54.0 °F 29.78 in SW 1.0 mph 5.0 mph 36 % 0.00 in
15:34 83.5 °F 50.5 °F 29.78 in Calm   5.0 mph 32 % 0.00 in
15:39 83.5 °F 52.2 °F 29.78 in WNW 1.0 mph 5.0 mph 34 % 0.00 in
15:44 83.7 °F 51.4 °F 29.78 in SSW 2.0 mph 5.0 mph 33 % 0.00 in
15:50 83.7 °F 49.8 °F 29.78 in Calm   4.0 mph 31 % 0.00 in
15:55 83.8 °F 50.9 °F 29.77 in Calm   4.0 mph 32 % 0.00 in
16:00 84.0 °F 51.8 °F 29.77 in WSW 2.0 mph 4.0 mph 33 % 0.00 in
16:05 83.8 °F 51.6 °F 29.77 in SW 1.0 mph 4.0 mph 33 % 0.00 in
16:10 83.8 °F 51.6 °F 29.77 in South 1.0 mph 5.0 mph 33 % 0.00 in
16:15 84.0 °F 52.7 °F 29.77 in WSW 1.0 mph 5.0 mph 34 % 0.00 in
16:20 84.0 °F 50.2 °F 29.77 in SSW 1.0 mph 4.0 mph 31 % 0.00 in
16:25 83.8 °F 52.5 °F 29.77 in WSW 2.0 mph 4.0 mph 34 % 0.00 in
16:30 83.8 °F 50.9 °F 29.77 in Calm   4.0 mph 32 % 0.00 in
16:35 84.0 °F 50.9 °F 29.77 in WSW 1.0 mph 4.0 mph 32 % 0.00 in
16:40 84.4 °F 53.8 °F 29.77 in Calm   4.0 mph 35 % 0.00 in
16:45 84.6 °F 52.3 °F 29.77 in SW 2.0 mph 4.0 mph 33 % 0.00 in
16:51 83.8 °F 51.6 °F 29.77 in WSW 1.0 mph 4.0 mph 33 % 0.00 in
16:56 83.7 °F 50.7 °F 29.77 in SW 3.0 mph 4.0 mph 32 % 0.00 in
17:01 83.5 °F 51.4 °F 29.77 in SW 1.0 mph 4.0 mph 33 % 0.00 in
17:06 83.5 °F 50.5 °F 29.77 in WSW 1.0 mph 4.0 mph 32 % 0.00 in
17:11 83.1 °F 50.2 °F 29.77 in Calm   4.0 mph 32 % 0.00 in
17:16 83.3 °F 51.3 °F 29.77 in West 1.0 mph 4.0 mph 33 % 0.00 in
17:21 83.1 °F 50.2 °F 29.77 in SSW 1.0 mph 4.0 mph 32 % 0.00 in
17:26 82.8 °F 50.7 °F 29.77 in Calm   2.0 mph 33 % 0.00 in
17:31 82.6 °F 50.5 °F 29.77 in SW 1.0 mph 2.0 mph 33 % 0.00 in
17:36 81.9 °F 50.0 °F 29.77 in Calm   2.0 mph 33 % 0.00 in
17:41 81.1 °F 50.9 °F 29.77 in South 3.0 mph 3.0 mph 35 % 0.00 in
17:46 80.2 °F 52.3 °F 29.77 in SSW 3.0 mph 5.0 mph 38 % 0.00 in
17:51 79.5 °F 52.3 °F 29.77 in SSW 1.0 mph 5.0 mph 39 % 0.00 in
17:56 78.8 °F 52.5 °F 29.77 in Calm   5.0 mph 40 % 0.00 in
18:01 78.1 °F 52.5 °F 29.77 in SW 2.0 mph 3.0 mph 41 % 0.00 in
18:06 77.5 °F 52.7 °F 29.78 in Calm   3.0 mph 42 % 0.00 in
18:11 77.0 °F 52.2 °F 29.78 in Calm   3.0 mph 42 % 0.00 in
18:16 76.5 °F 51.6 °F 29.78 in Calm   3.0 mph 42 % 0.00 in
18:21 75.7 °F 51.6 °F 29.78 in Calm   2.0 mph 43 % 0.00 in
18:26 75.0 °F 51.6 °F 29.78 in Calm   2.0 mph 44 % 0.00 in
18:31 74.5 °F 51.8 °F 29.78 in Calm   1.0 mph 45 % 0.00 in
18:36 73.9 °F 51.3 °F 29.78 in Calm   1.0 mph 45 % 0.00 in
18:41 73.2 °F 50.5 °F 29.78 in Calm   1.0 mph 45 % 0.00 in
18:46 72.5 °F 50.5 °F 29.78 in Calm     46 % 0.00 in
18:51 71.8 °F 51.6 °F 29.78 in Calm     49 % 0.00 in
18:57 71.1 °F 51.4 °F 29.78 in Calm     50 % 0.00 in
19:02 70.3 °F 50.9 °F 29.78 in Calm     50 % 0.00 in
19:07 69.6 °F 51.3 °F 29.78 in Calm     52 % 0.00 in
19:12 69.1 °F 51.3 °F 29.78 in Calm     53 % 0.00 in
19:17 68.4 °F 51.1 °F 29.78 in Calm     54 % 0.00 in
19:22 67.6 °F 50.9 °F 29.78 in Calm     55 % 0.00 in
19:27 67.1 °F 51.4 °F 29.78 in Calm     57 % 0.00 in
19:32 66.7 °F 52.3 °F 29.78 in Calm     60 % 0.00 in
19:37 66.6 °F 52.2 °F 29.78 in Calm     60 % 0.00 in
19:42 66.2 °F 52.0 °F 29.78 in Calm     60 % 0.00 in
19:47 65.8 °F 51.6 °F 29.78 in Calm     60 % 0.00 in
19:52 65.7 °F 51.8 °F 29.79 in Calm     61 % 0.00 in
19:57 65.7 °F 52.3 °F 29.79 in Calm     62 % 0.00 in
20:02 65.5 °F 51.6 °F 29.79 in Calm     61 % 0.00 in
20:07 64.9 °F 50.7 °F 29.79 in Calm     60 % 0.00 in
20:12 64.6 °F 52.2 °F 29.79 in Calm     64 % 0.00 in
20:17 64.2 °F 52.2 °F 29.79 in Calm     65 % 0.00 in
20:22 64.2 °F 53.1 °F 29.79 in Calm     67 % 0.00 in
20:27 64.0 °F 52.9 °F 29.79 in Calm     67 % 0.00 in
20:32 63.7 °F 52.9 °F 29.79 in Calm     68 % 0.00 in
20:37 63.7 °F 53.8 °F 29.79 in Calm     70 % 0.00 in
20:42 63.5 °F 52.3 °F 29.79 in Calm     67 % 0.00 in
20:47 63.1 °F 52.3 °F 29.79 in Calm     68 % 0.00 in
20:52 62.8 °F 52.5 °F 29.79 in Calm     69 % 0.00 in
20:57 62.8 °F 53.2 °F 29.79 in Calm     71 % 0.00 in
21:02 62.6 °F 52.7 °F 29.79 in Calm     70 % 0.00 in
21:07 62.2 °F 53.1 °F 29.79 in SE 4.0 mph   72 % 0.00 in
21:12 63.1 °F 54.0 °F 29.79 in Calm   5.0 mph 72 % 0.00 in
21:17 64.0 °F 54.5 °F 29.79 in Calm   5.0 mph 71 % 0.00 in
21:22 64.2 °F 54.3 °F 29.79 in Calm   5.0 mph 70 % 0.00 in
21:27 64.2 °F 53.8 °F 29.79 in Calm   3.0 mph 69 % 0.00 in
21:32 64.0 °F 53.2 °F 29.79 in Calm   2.0 mph 68 % 0.00 in
21:37 63.9 °F 54.0 °F 29.79 in Calm   1.0 mph 70 % 0.00 in
21:42 64.0 °F 54.1 °F 29.79 in Calm   1.0 mph 70 % 0.00 in
21:47 64.0 °F 53.6 °F 29.79 in Calm   1.0 mph 69 % 0.00 in
21:52 63.9 °F 54.0 °F 29.79 in Calm   1.0 mph 70 % 0.00 in
21:57 64.0 °F 54.5 °F 29.79 in Calm   1.0 mph 71 % 0.00 in
22:02 64.0 °F 54.5 °F 29.79 in Calm     71 % 0.00 in
22:07 64.0 °F 54.5 °F 29.79 in Calm     71 % 0.00 in
22:12 64.0 °F 54.5 °F 29.79 in Calm     71 % 0.00 in
22:17 63.9 °F 54.3 °F 29.79 in Calm     71 % 0.00 in
22:23 63.9 °F 54.7 °F 29.79 in SSE 1.0 mph 2.0 mph 72 % 0.00 in
22:28 63.9 °F 54.7 °F 29.79 in SE 1.0 mph 2.0 mph 72 % 0.00 in
22:33 64.0 °F 54.5 °F 29.79 in SE 2.0 mph 3.0 mph 71 % 0.00 in
22:38 64.0 °F 54.1 °F 29.79 in South 1.0 mph 3.0 mph 70 % 0.00 in
22:43 64.0 °F 54.1 °F 29.78 in ESE 1.0 mph 4.0 mph 70 % 0.00 in
22:48 64.0 °F 53.6 °F 29.78 in SE 1.0 mph 4.0 mph 69 % 0.00 in
22:53 64.0 °F 53.6 °F 29.78 in SE 2.0 mph 4.0 mph 69 % 0.00 in
22:58 64.0 °F 53.6 °F 29.78 in East 2.0 mph 3.0 mph 69 % 0.00 in
23:03 63.9 °F 54.0 °F 29.78 in Calm   3.0 mph 70 % 0.00 in
23:08 63.7 °F 54.1 °F 29.78 in SE 1.0 mph 3.0 mph 71 % 0.00 in
23:13 63.3 °F 53.8 °F 29.78 in SE 1.0 mph 3.0 mph 71 % 0.00 in
23:18 63.0 °F 53.4 °F 29.77 in SE 1.0 mph 2.0 mph 71 % 0.00 in
23:23 62.8 °F 53.6 °F 29.77 in Calm   2.0 mph 72 % 0.00 in
23:28 62.4 °F 53.2 °F 29.77 in Calm   2.0 mph 72 % 0.00 in
23:33 62.2 °F 53.4 °F 29.77 in Calm   1.0 mph 73 % 0.00 in
23:38 62.1 °F 53.2 °F 29.77 in Calm   1.0 mph 73 % 0.00 in
23:43 61.9 °F 53.1 °F 29.77 in Calm   1.0 mph 73 % 0.00 in
23:48 61.5 °F 52.7 °F 29.77 in Calm   1.0 mph 73 % 0.00 in
23:53 61.5 °F 53.2 °F 29.77 in SE 1.0 mph 1.0 mph 74 % 0.00 in
23:58 61.3 °F 52.7 °F 29.77 in Calm   1.0 mph 73 % 0.00 in
Spring, Texas: Villages of Bridgestone
Compliments of Weather Underground - 2.75 mb

Script developed by  Jim McMurry - jmcmurry@mwt.net Adapted for the template by  Wim van der Kuil - Leuven-Template.eu

You find our weather info also at:

UK Metoffice

WeatherCloud

Weather Underground

Mid-South Weather Network

AWEKAS

Citizen Weather Observer Program (CWOP)

HAMweather, WeatherForYou, PWS Weather

Equipment we use:

Weather-station
Davis Vantage Vue

Weather-program
Meteohub

Weather-server
Debian 7.9 x86 (Guest)

Provider
DreamHost

Davis Vantage Vue

Meteohub

Debian 7.9 x86 (Guest)

DreamHost